| time (UTC) | temp C | wind direction | speed KPH | gust KPH | rain 1hr cm | rain 24hr cm | rain mn cm | humidity % | barometer mb |
| 20260509161903 | 20 | 277 | 11.3 | 16.1 | 0.00 | 0.00 | 0.00 | 52 | 1005.8 |
| 20260509161400 | 20 | 272 | 4.8 | 6.4 | 0.00 | 0.00 | 0.00 | 54 | 1005.6 |
| 20260509160855 | 20 | 11 | 1.6 | 1.6 | 0.00 | 0.00 | 0.00 | 53 | 1005.6 |
| 20260509160351 | 20 | 345 | 4.8 | 4.8 | 0.00 | 0.00 | 0.00 | 56 | 1005.6 |
| 20260509155846 | 20 | 222 | 4.8 | 4.8 | 0.00 | 0.00 | 0.00 | 58 | 1005.9 |
| 20260509155343 | 19 | 258 | 4.8 | 6.4 | 0.00 | 0.00 | 0.00 | 55 | 1005.8 |
| 20260509154839 | 19 | 209 | 3.2 | 3.2 | 0.00 | 0.00 | 0.00 | 59 | 1005.6 |
| 20260509154336 | 18 | 176 | 1.6 | 3.2 | 0.00 | 0.00 | 0.00 | 61 | 1005.6 |
| 20260509153833 | 18 | 160 | 3.2 | 3.2 | 0.00 | 0.00 | 0.00 | 63 | 1005.8 |
| 20260509153330 | 18 | 350 | 3.2 | 3.2 | 0.00 | 0.00 | 0.00 | 62 | 1005.6 |
| 20260509152827 | 18 | 190 | 6.4 | 11.3 | 0.00 | 0.00 | 0.00 | 63 | 1005.5 |
| 20260509152322 | 18 | 275 | 4.8 | 4.8 | 0.00 | 0.00 | 0.00 | 60 | 1005.8 |
| 20260509151821 | 18 | 200 | 6.4 | 9.7 | 0.00 | 0.00 | 0.00 | 61 | 1005.6 |
| 20260509151316 | 18 | 226 | 6.4 | 9.7 | 0.00 | 0.00 | 0.00 | 65 | 1005.9 |
| 20260509150815 | 18 | 210 | 4.8 | 4.8 | 0.00 | 0.00 | 0.00 | 65 | 1005.8 |
| 20260509150312 | 17 | 143 | 6.4 | 9.7 | 0.00 | 0.00 | 0.00 | 65 | 1005.6 |
| 20260509145809 | 17 | 175 | 3.2 | 6.4 | 0.00 | 0.00 | 0.00 | 66 | 1005.6 |
| 20260509145309 | 17 | 239 | 8.0 | 16.1 | 0.00 | 0.00 | 0.00 | 67 | 1005.8 |
| 20260509144806 | 17 | 182 | 8.0 | 11.3 | 0.00 | 0.00 | 0.00 | 68 | 1005.6 |
| 20260509144303 | 17 | 162 | 4.8 | 6.4 | 0.00 | 0.00 | 0.00 | 68 | 1005.6 |
| 20260509143800 | 17 | 208 | 1.6 | 6.4 | 0.00 | 0.00 | 0.00 | 69 | 1005.9 |
| 20260509143257 | 17 | 241 | 4.8 | 6.4 | 0.00 | 0.00 | 0.00 | 69 | 1005.8 |
| 20260509142753 | 17 | 202 | 8.0 | 12.9 | 0.00 | 0.00 | 0.00 | 69 | 1005.6 |
| 20260509142249 | 17 | 204 | 6.4 | 6.4 | 0.00 | 0.00 | 0.00 | 69 | 1005.4 |
| 20260509141745 | 16 | 194 | 3.2 | 4.8 | 0.00 | 0.00 | 0.00 | 70 | 1005.5 |
| 20260509141242 | 16 | 180 | 6.4 | 6.4 | 0.00 | 0.00 | 0.00 | 71 | 1005.4 |
| 20260509140739 | 16 | 145 | 6.4 | 9.7 | 0.00 | 0.00 | 0.00 | 71 | 1005.4 |
| 20260509140236 | 16 | 215 | 9.7 | 12.9 | 0.00 | 0.00 | 0.00 | 73 | 1005.3 |
| 20260509135733 | 16 | 274 | 8.0 | 11.3 | 0.00 | 0.00 | 0.00 | 73 | 1005.5 |
| 20260509135231 | 16 | 163 | 4.8 | 9.7 | 0.00 | 0.00 | 0.00 | 73 | 1005.2 |
| 20260509134728 | 15 | 183 | 4.8 | 6.4 | 0.00 | 0.00 | 0.00 | 76 | 1005.0 |
| 20260509134226 | 15 | 233 | 4.8 | 9.7 | 0.00 | 0.00 | 0.00 | 75 | 1005.3 |
| 20260509133723 | 15 | 169 | 9.7 | 16.1 | 0.00 | 0.00 | 0.00 | 76 | 1005.2 |
| 20260509133219 | 15 | 86 | 4.8 | 6.4 | 0.00 | 0.00 | 0.00 | 77 | 1005.3 |
| 20260509132718 | 15 | 36 | 8.0 | 9.7 | 0.00 | 0.00 | 0.00 | 78 | 1005.5 |
| 20260509132216 | 15 | 184 | 6.4 | 16.1 | 0.00 | 0.00 | 0.00 | 78 | 1005.6 |
| 20260509131712 | 15 | 171 | 3.2 | 4.8 | 0.00 | 0.00 | 0.00 | 78 | 1006.0 |
| 20260509131209 | 15 | 248 | 3.2 | 3.2 | 0.00 | 0.00 | 0.00 | 79 | 1005.8 |
| 20260509130705 | 14 | 208 | 8.0 | 11.3 | 0.00 | 0.00 | 0.00 | 79 | 1005.6 |
| 20260509130201 | 14 | 182 | 6.4 | 9.7 | 0.00 | 0.00 | 0.00 | 79 | 1005.6 |
| 20260509125658 | 14 | 232 | 4.8 | 4.8 | 0.00 | 0.00 | 0.00 | 80 | 1005.6 |
| 20260509125154 | 14 | 180 | 3.2 | 4.8 | 0.00 | 0.00 | 0.00 | 81 | 1005.4 |
| 20260509124651 | 13 | 164 | 1.6 | 1.6 | 0.00 | 0.00 | 0.00 | 82 | 1005.4 |
| 20260509124148 | 13 | 193 | 4.8 | 9.7 | 0.00 | 0.00 | 0.00 | 83 | 1005.5 |
| 20260509123646 | 13 | 209 | 4.8 | 6.4 | 0.00 | 0.00 | 0.00 | 83 | 1005.5 |
| 20260509123143 | 13 | 193 | 4.8 | 6.4 | 0.00 | 0.00 | 0.00 | 85 | 1005.5 |
| 20260509122638 | 13 | 168 | 6.4 | 9.7 | 0.00 | 0.00 | 0.00 | 85 | 1005.4 |
| 20260509122136 | 12 | 115 | 6.4 | 6.4 | 0.00 | 0.00 | 0.00 | 86 | 1005.4 |
| 20260509121632 | 12 | 190 | 4.8 | 6.4 | 0.00 | 0.00 | 0.00 | 87 | 1005.3 |
| 20260509121130 | 12 | 169 | 6.4 | 6.4 | 0.00 | 0.00 | 0.00 | 88 | 1005.3 |
| 20260509120628 | 12 | 209 | 6.4 | 12.9 | 0.00 | 0.00 | 0.00 | 89 | 1005.5 |
| 20260509120126 | 12 | 169 | 4.8 | 4.8 | 0.00 | 0.00 | 0.00 | 90 | 1005.4 |
| 20260509115623 | 12 | 103 | 4.8 | 4.8 | 0.00 | 0.00 | 0.00 | 90 | 1005.5 |
| 20260509115121 | 12 | 188 | 4.8 | 9.7 | 0.00 | 0.00 | 0.00 | 90 | 1005.4 |
| 20260509114618 | 12 | 149 | 4.8 | 6.4 | 0.00 | 0.00 | 0.00 | 90 | 1005.2 |
| 20260509114117 | 12 | 199 | 3.2 | 4.8 | 0.00 | 0.00 | 0.00 | 90 | 1005.3 |
| 20260509113615 | 12 | 233 | 4.8 | 6.4 | 0.00 | 0.00 | 0.00 | 90 | 1005.1 |
| 20260509113112 | 12 | 226 | 4.8 | 6.4 | 0.00 | 0.00 | 0.00 | 90 | 1005.3 |
| 20260509112608 | 11 | 174 | 4.8 | 4.8 | 0.00 | 0.00 | 0.00 | 90 | 1005.1 |
| 20260509112105 | 11 | 239 | 8.0 | 9.7 | 0.00 | 0.00 | 0.00 | 90 | 1005.0 |
| 20260509111603 | 12 | 193 | 1.6 | 3.2 | 0.00 | 0.00 | 0.00 | 90 | 1005.1 |
| 20260509111059 | 12 | 205 | 3.2 | 4.8 | 0.00 | 0.00 | 0.00 | 90 | 1005.0 |
| 20260509110557 | 12 | 230 | 1.6 | 1.6 | 0.00 | 0.00 | 0.00 | 89 | 1005.2 |
| 20260509110054 | 12 | 176 | 6.4 | 9.7 | 0.00 | 0.00 | 0.00 | 89 | 1004.7 |
| 20260509105552 | 12 | 194 | 3.2 | 4.8 | 0.00 | 0.00 | 0.00 | 89 | 1004.6 |
| 20260509105049 | 12 | 161 | 8.0 | 11.3 | 0.00 | 0.00 | 0.00 | 89 | 1004.8 |
| 20260509104546 | 12 | 180 | 3.2 | 4.8 | 0.00 | 0.00 | 0.00 | 89 | 1004.8 |
| 20260509104043 | 12 | 221 | 4.8 | 4.8 | 0.00 | 0.00 | 0.00 | 89 | 1004.9 |
| 20260509103541 | 12 | 228 | 6.4 | 9.7 | 0.00 | 0.00 | 0.00 | 89 | 1004.8 |
| 20260509103039 | 12 | 196 | 6.4 | 11.3 | 0.00 | 0.00 | 0.00 | 88 | 1004.6 |
| 20260509102536 | 12 | 166 | 11.3 | 14.5 | 0.00 | 0.00 | 0.00 | 88 | 1004.7 |
| 20260509102032 | 12 | 145 | 3.2 | 4.8 | 0.00 | 0.00 | 0.00 | 89 | 1004.6 |
| 20260509101529 | 12 | 142 | 3.2 | 3.2 | 0.00 | 0.00 | 0.00 | 89 | 1004.7 |
| 20260509101026 | 12 | 175 | 3.2 | 4.8 | 0.00 | 0.00 | 0.00 | 89 | 1004.8 |
| 20260509100523 | 12 | 135 | 3.2 | 3.2 | 0.00 | 0.00 | 0.00 | 89 | 1004.9 |
| 20260509100020 | 12 | 196 | 4.8 | 6.4 | 0.00 | 0.00 | 0.00 | 89 | 1004.9 |
| 20260509095517 | 12 | 155 | 1.6 | 3.2 | 0.00 | 0.00 | 0.00 | 89 | 1005.0 |
| 20260509095014 | 12 | 161 | 1.6 | 3.2 | 0.00 | 0.00 | 0.00 | 89 | 1005.2 |
| 20260509094510 | 12 | 158 | 3.2 | 4.8 | 0.00 | 0.00 | 0.00 | 89 | 1005.2 |
| 20260509094008 | 12 | 192 | 4.8 | 4.8 | 0.00 | 0.00 | 0.00 | 89 | 1005.2 |
| 20260509093506 | 11 | 183 | 3.2 | 4.8 | 0.00 | 0.00 | 0.00 | 90 | 1005.1 |
| 20260509093003 | 12 | 166 | 1.6 | 1.6 | 0.00 | 0.00 | 0.00 | 90 | 1005.4 |
| 20260509092500 | 11 | 212 | 1.6 | 3.2 | 0.00 | 0.00 | 0.00 | 90 | 1005.6 |
| 20260509091959 | 11 | 174 | 6.4 | 6.4 | 0.00 | 0.00 | 0.00 | 90 | 1005.4 |
| 20260509091456 | 11 | 172 | 1.6 | 1.6 | 0.00 | 0.00 | 0.00 | 90 | 1005.3 |
| 20260509090953 | 11 | 171 | 1.6 | 3.2 | 0.00 | 0.00 | 0.00 | 90 | 1005.2 |
| 20260509090450 | 11 | 220 | 3.2 | 4.8 | 0.00 | 0.00 | 0.00 | 90 | 1005.4 |
| 20260509085947 | 11 | 193 | 6.4 | 9.7 | 0.00 | 0.00 | 0.00 | 91 | 1005.4 |
| 20260509085444 | 11 | 176 | 4.8 | 6.4 | 0.00 | 0.00 | 0.00 | 91 | 1005.5 |
| 20260509084941 | 11 | 149 | 1.6 | 3.2 | 0.00 | 0.00 | 0.00 | 91 | 1005.6 |
| 20260509084437 | 11 | 222 | 3.2 | 4.8 | 0.00 | 0.00 | 0.00 | 90 | 1005.6 |
| 20260509083935 | 11 | 186 | 6.4 | 9.7 | 0.00 | 0.00 | 0.00 | 90 | 1005.6 |
| 20260509083432 | 11 | 170 | 4.8 | 4.8 | 0.00 | 0.00 | 0.00 | 90 | 1005.5 |
| 20260509082929 | 11 | 173 | 1.6 | 1.6 | 0.00 | 0.00 | 0.00 | 90 | 1005.4 |
| 20260509082426 | 11 | 235 | 3.2 | 3.2 | 0.00 | 0.00 | 0.00 | 90 | 1005.6 |
| 20260509081922 | 11 | 164 | 3.2 | 4.8 | 0.00 | 0.00 | 0.00 | 90 | 1005.5 |
| 20260509081420 | 11 | 170 | 1.6 | 3.2 | 0.00 | 0.00 | 0.00 | 89 | 1005.4 |
| 20260509080917 | 11 | 195 | 4.8 | 4.8 | 0.00 | 0.00 | 0.00 | 89 | 1005.3 |
| 20260509080415 | 11 | 155 | 6.4 | 6.4 | 0.00 | 0.00 | 0.00 | 89 | 1005.5 |
| 20260509075913 | 12 | 194 | 1.6 | 1.6 | 0.00 | 0.00 | 0.00 | 89 | 1005.3 |
| 20260509075410 | 12 | 184 | 6.4 | 6.4 | 0.00 | 0.00 | 0.00 | 88 | 1005.5 |
| 20260509074908 | 12 | 191 | 4.8 | 6.4 | 0.00 | 0.00 | 0.00 | 88 | 1005.8 |
| 20260509074405 | 12 | 157 | 4.8 | 4.8 | 0.00 | 0.00 | 0.00 | 88 | 1005.6 |
| 20260509073901 | 12 | 159 | 1.6 | 3.2 | 0.00 | 0.00 | 0.00 | 87 | 1005.9 |
| 20260509073358 | 12 | 147 | 0.0 | 0.0 | 0.00 | 0.00 | 0.00 | 87 | 1005.9 |
| 20260509072854 | 12 | 184 | 4.8 | 4.8 | 0.00 | 0.00 | 0.00 | 87 | 1005.8 |
| 20260509072351 | 12 | 170 | 1.6 | 1.6 | 0.00 | 0.00 | 0.00 | 86 | 1005.9 |
| 20260509071847 | 12 | 193 | 1.6 | 3.2 | 0.00 | 0.00 | 0.00 | 86 | 1006.1 |
| 20260509071344 | 12 | 172 | 3.2 | 3.2 | 0.00 | 0.00 | 0.00 | 86 | 1006.3 |
| 20260509070842 | 12 | 172 | 1.6 | 3.2 | 0.00 | 0.00 | 0.00 | 86 | 1006.2 |
| 20260509070338 | 12 | 151 | 3.2 | 4.8 | 0.00 | 0.00 | 0.00 | 85 | 1006.2 |
| 20260509065834 | 12 | 228 | 3.2 | 4.8 | 0.00 | 0.00 | 0.00 | 85 | 1006.4 |
| 20260509065331 | 12 | 235 | 3.2 | 3.2 | 0.00 | 0.00 | 0.00 | 85 | 1006.3 |
| 20260509064826 | 12 | 192 | 1.6 | 1.6 | 0.00 | 0.00 | 0.00 | 85 | 1006.4 |
| 20260509064325 | 12 | 177 | 3.2 | 3.2 | 0.00 | 0.00 | 0.00 | 85 | 1006.5 |
| 20260509063822 | 12 | 185 | 1.6 | 3.2 | 0.00 | 0.00 | 0.00 | 84 | 1006.5 |
| 20260509063318 | 12 | 204 | 6.4 | 6.4 | 0.00 | 0.00 | 0.00 | 84 | 1006.5 |
| 20260509062816 | 12 | 208 | 1.6 | 4.8 | 0.00 | 0.00 | 0.00 | 84 | 1006.6 |
| 20260509062312 | 12 | 189 | 3.2 | 3.2 | 0.00 | 0.00 | 0.00 | 84 | 1006.5 |
| 20260509061809 | 12 | 229 | 1.6 | 1.6 | 0.00 | 0.00 | 0.00 | 84 | 1006.6 |
| 20260509061308 | 13 | 143 | 6.4 | 11.3 | 0.00 | 0.00 | 0.00 | 84 | 1006.6 |
| 20260509060804 | 13 | 124 | 4.8 | 6.4 | 0.00 | 0.00 | 0.00 | 84 | 1006.6 |
| 20260509060301 | 13 | 159 | 3.2 | 4.8 | 0.00 | 0.00 | 0.00 | 83 | 1007.1 |
| 20260509055756 | 13 | 160 | 4.8 | 4.8 | 0.00 | 0.00 | 0.00 | 83 | 1007.0 |
| 20260509055252 | 13 | 160 | 6.4 | 9.7 | 0.00 | 0.00 | 0.00 | 83 | 1007.0 |
| 20260509054749 | 13 | 193 | 3.2 | 4.8 | 0.00 | 0.00 | 0.00 | 83 | 1006.8 |
| 20260509054246 | 13 | 263 | 4.8 | 9.7 | 0.00 | 0.00 | 0.00 | 83 | 1007.1 |
| 20260509053745 | 13 | 168 | 3.2 | 4.8 | 0.00 | 0.00 | 0.00 | 83 | 1006.8 |
| 20260509053241 | 13 | 179 | 0.0 | 1.6 | 0.00 | 0.00 | 0.00 | 82 | 1007.0 |
| 20260509052739 | 13 | 207 | 8.0 | 11.3 | 0.00 | 0.00 | 0.00 | 82 | 1007.0 |
| 20260509052237 | 13 | 233 | 4.8 | 6.4 | 0.00 | 0.00 | 0.00 | 82 | 1007.0 |
| 20260509051734 | 13 | 203 | 3.2 | 4.8 | 0.00 | 0.00 | 0.00 | 81 | 1006.9 |
| 20260509051232 | 13 | 202 | 6.4 | 9.7 | 0.00 | 0.00 | 0.00 | 81 | 1006.9 |
| 20260509050728 | 13 | 189 | 4.8 | 4.8 | 0.00 | 0.00 | 0.00 | 80 | 1007.1 |
| 20260509050225 | 13 | 177 | 3.2 | 3.2 | 0.00 | 0.00 | 0.00 | 80 | 1007.0 |
| 20260509045722 | 13 | 151 | 4.8 | 9.7 | 0.00 | 0.00 | 0.00 | 79 | 1006.9 |
| 20260509045219 | 13 | 162 | 4.8 | 6.4 | 0.00 | 0.00 | 0.00 | 79 | 1007.0 |
| 20260509044716 | 14 | 183 | 1.6 | 1.6 | 0.00 | 0.00 | 0.00 | 78 | 1007.0 |
| 20260509044214 | 14 | 162 | 4.8 | 6.4 | 0.00 | 0.00 | 0.00 | 77 | 1007.0 |
| 20260509043710 | 14 | 151 | 3.2 | 4.8 | 0.00 | 0.00 | 0.00 | 77 | 1007.1 |
| 20260509043206 | 14 | 207 | 6.4 | 6.4 | 0.00 | 0.00 | 0.00 | 76 | 1007.0 |
| 20260509042703 | 14 | 204 | 6.4 | 9.7 | 0.00 | 0.00 | 0.00 | 76 | 1007.1 |
| 20260509042158 | 14 | 203 | 3.2 | 4.8 | 0.00 | 0.00 | 0.00 | 75 | 1007.1 |
| 20260509041655 | 14 | 190 | 6.4 | 6.4 | 0.00 | 0.00 | 0.00 | 74 | 1007.0 |
| 20260509041153 | 14 | 201 | 6.4 | 9.7 | 0.00 | 0.00 | 0.00 | 74 | 1007.0 |
| 20260509040651 | 14 | 194 | 9.7 | 12.9 | 0.00 | 0.00 | 0.00 | 73 | 1007.0 |
| 20260509040148 | 14 | 159 | 4.8 | 4.8 | 0.00 | 0.00 | 0.00 | 73 | 1007.1 |
| 20260509035644 | 15 | 162 | 1.6 | 1.6 | 0.00 | 0.00 | 0.00 | 72 | 1007.2 |
| 20260509035141 | 14 | 184 | 3.2 | 4.8 | 0.00 | 0.00 | 0.00 | 73 | 1007.3 |
| 20260509034639 | 14 | 200 | 3.2 | 3.2 | 0.00 | 0.00 | 0.00 | 73 | 1007.2 |
| 20260509034136 | 14 | 184 | 3.2 | 4.8 | 0.00 | 0.00 | 0.00 | 73 | 1007.2 |
| 20260509033633 | 14 | 156 | 1.6 | 3.2 | 0.00 | 0.00 | 0.00 | 73 | 1007.3 |
| 20260509033130 | 14 | 161 | 4.8 | 9.7 | 0.00 | 0.00 | 0.00 | 72 | 1007.3 |
| 20260509032627 | 13 | 197 | 9.7 | 12.9 | 0.00 | 0.00 | 0.00 | 72 | 1007.2 |
| 20260509032124 | 13 | 178 | 4.8 | 4.8 | 0.00 | 0.00 | 0.00 | 70 | 1007.4 |
| 20260509031622 | 13 | 195 | 4.8 | 4.8 | 0.00 | 0.00 | 0.00 | 70 | 1007.3 |
| 20260509031119 | 13 | 179 | 4.8 | 4.8 | 0.00 | 0.00 | 0.00 | 70 | 1007.4 |
| 20260509030617 | 13 | 159 | 3.2 | 3.2 | 0.00 | 0.00 | 0.00 | 69 | 1007.4 |
| 20260509030114 | 13 | 158 | 0.0 | 1.6 | 0.00 | 0.00 | 0.00 | 69 | 1007.2 |
| 20260509025610 | 12 | 155 | 1.6 | 1.6 | 0.00 | 0.00 | 0.00 | 70 | 1007.5 |
| 20260509025106 | 12 | 164 | 1.6 | 1.6 | 0.00 | 0.00 | 0.00 | 70 | 1007.4 |
| 20260509024602 | 12 | 142 | 0.0 | 0.0 | 0.00 | 0.00 | 0.00 | 70 | 1007.5 |
| 20260509024058 | 12 | 143 | 1.6 | 1.6 | 0.00 | 0.00 | 0.00 | 70 | 1007.5 |
| 20260509023556 | 12 | 113 | 0.0 | 0.0 | 0.00 | 0.00 | 0.00 | 71 | 1007.4 |
| 20260509023052 | 12 | 140 | 0.0 | 0.0 | 0.00 | 0.00 | 0.00 | 70 | 1007.4 |
| 20260509022548 | 12 | 140 | 0.0 | 0.0 | 0.00 | 0.00 | 0.00 | 70 | 1007.6 |
| 20260509022047 | 12 | 131 | 0.0 | 0.0 | 0.00 | 0.00 | 0.00 | 70 | 1007.5 |
| 20260509021543 | 12 | 130 | 0.0 | 0.0 | 0.00 | 0.00 | 0.00 | 70 | 1007.4 |
| 20260509021040 | 12 | 131 | 0.0 | 0.0 | 0.00 | 0.00 | 0.00 | 69 | 1007.7 |
| 20260509020539 | 13 | 115 | 0.0 | 0.0 | 0.00 | 0.00 | 0.00 | 68 | 1007.5 |
| 20260509020035 | 13 | 116 | 0.0 | 0.0 | 0.00 | 0.00 | 0.00 | 68 | 1007.4 |
| 20260509015534 | 13 | 132 | 0.0 | 0.0 | 0.00 | 0.00 | 0.00 | 68 | 1007.4 |
| 20260509015031 | 13 | 125 | 0.0 | 0.0 | 0.00 | 0.00 | 0.00 | 67 | 1007.4 |
| 20260509014528 | 13 | 153 | 0.0 | 0.0 | 0.00 | 0.00 | 0.00 | 67 | 1007.5 |
| 20260509014024 | 13 | 111 | 0.0 | 0.0 | 0.00 | 0.00 | 0.00 | 67 | 1007.4 |
| 20260509013521 | 13 | 106 | 0.0 | 0.0 | 0.00 | 0.00 | 0.00 | 67 | 1007.5 |
| 20260509013016 | 13 | 138 | 0.0 | 0.0 | 0.00 | 0.00 | 0.00 | 66 | 1007.4 |
| 20260509012514 | 13 | 138 | 0.0 | 0.0 | 0.00 | 0.00 | 0.00 | 65 | 1007.5 |
| 20260509012010 | 14 | 91 | 0.0 | 0.0 | 0.00 | 0.00 | 0.00 | 64 | 1007.4 |
| 20260509011508 | 14 | 85 | 0.0 | 0.0 | 0.00 | 0.00 | 0.00 | 64 | 1007.2 |
| 20260509011005 | 14 | 142 | 0.0 | 0.0 | 0.00 | 0.00 | 0.00 | 64 | 1007.2 |
| 20260509010503 | 14 | 120 | 0.0 | 0.0 | 0.00 | 0.00 | 0.00 | 64 | 1007.2 |
| 20260509005959 | 14 | 108 | 0.0 | 0.0 | 0.00 | 0.00 | 0.00 | 63 | 1007.4 |
| 20260509005458 | 14 | 53 | 4.8 | 6.4 | 0.00 | 0.00 | 0.00 | 62 | 1007.4 |
| 20260509004957 | 15 | 120 | 0.0 | 0.0 | 0.00 | 0.00 | 0.00 | 63 | 1007.3 |
| 20260509004454 | 15 | 63 | 1.6 | 1.6 | 0.00 | 0.00 | 0.00 | 62 | 1007.5 |
| 20260509003952 | 15 | 79 | 6.4 | 9.7 | 0.00 | 0.00 | 0.00 | 61 | 1007.2 |
| 20260509003450 | 15 | 155 | 1.6 | 1.6 | 0.00 | 0.00 | 0.00 | 62 | 1007.5 |
| 20260509002946 | 15 | 86 | 1.6 | 1.6 | 0.00 | 0.00 | 0.00 | 61 | 1007.2 |
| 20260509002445 | 15 | 49 | 1.6 | 1.6 | 0.00 | 0.00 | 0.00 | 61 | 1007.3 |
| 20260509001941 | 15 | 117 | 1.6 | 4.8 | 0.00 | 0.00 | 0.00 | 61 | 1007.5 |
| 20260509001438 | 15 | 85 | 3.2 | 6.4 | 0.00 | 0.00 | 0.00 | 62 | 1007.5 |
| 20260509000934 | 15 | 124 | 1.6 | 3.2 | 0.00 | 0.00 | 0.00 | 62 | 1007.4 |
| 20260509000433 | 16 | 64 | 1.6 | 3.2 | 0.00 | 0.00 | 0.00 | 61 | 1007.4 |
| 20260508235928 | 16 | 84 | 4.8 | 4.8 | 0.00 | 0.00 | 0.00 | 61 | 1007.5 |
| 20260508235427 | 16 | 97 | 1.6 | 3.2 | 0.00 | 0.00 | 0.00 | 61 | 1007.6 |
| 20260508234923 | 16 | 44 | 0.0 | 1.6 | 0.00 | 0.00 | 0.00 | 61 | 1007.5 |
| 20260508234420 | 16 | 85 | 1.6 | 1.6 | 0.00 | 0.00 | 0.00 | 61 | 1007.6 |
| 20260508233918 | 16 | 77 | 1.6 | 1.6 | 0.00 | 0.00 | 0.00 | 61 | 1007.6 |
| 20260508233417 | 16 | 59 | 1.6 | 3.2 | 0.00 | 0.00 | 0.00 | 61 | 1007.7 |
| 20260508232913 | 16 | 85 | 1.6 | 1.6 | 0.00 | 0.00 | 0.00 | 62 | 1007.7 |
| 20260508232410 | 16 | 76 | 9.7 | 12.9 | 0.00 | 0.00 | 0.00 | 61 | 1007.7 |
| 20260508231908 | 16 | 167 | 6.4 | 9.7 | 0.00 | 0.00 | 0.00 | 61 | 1007.6 |
| 20260508231404 | 16 | 175 | 3.2 | 3.2 | 0.00 | 0.00 | 0.00 | 61 | 1007.6 |
| 20260508230901 | 16 | 178 | 1.6 | 1.6 | 0.00 | 0.00 | 0.00 | 61 | 1007.6 |
| 20260508230358 | 17 | 139 | 3.2 | 4.8 | 0.00 | 0.00 | 0.00 | 60 | 1007.7 |
| 20260508225855 | 17 | 116 | 3.2 | 4.8 | 0.00 | 0.00 | 0.00 | 61 | 1007.5 |
| 20260508225351 | 17 | 355 | 3.2 | 4.8 | 0.00 | 0.00 | 0.00 | 61 | 1007.6 |
| 20260508224850 | 16 | 71 | 0.0 | 1.6 | 0.00 | 0.00 | 0.00 | 62 | 1007.5 |
| 20260508224347 | 17 | 26 | 1.6 | 1.6 | 0.00 | 0.00 | 0.00 | 62 | 1007.8 |
| 20260508223844 | 17 | 59 | 9.7 | 12.9 | 0.00 | 0.00 | 0.00 | 61 | 1007.8 |
| 20260508223341 | 17 | 56 | 1.6 | 1.6 | 0.00 | 0.00 | 0.00 | 61 | 1007.8 |
| 20260508222839 | 17 | 107 | 6.4 | 11.3 | 0.00 | 0.00 | 0.00 | 60 | 1007.8 |
| 20260508222336 | 16 | 106 | 3.2 | 3.2 | 0.00 | 0.00 | 0.00 | 62 | 1007.8 |
| 20260508221833 | 17 | 339 | 3.2 | 3.2 | 0.00 | 0.00 | 0.00 | 61 | 1007.8 |
| 20260508221328 | 17 | 157 | 3.2 | 3.2 | 0.00 | 0.00 | 0.00 | 61 | 1008.0 |
| 20260508220825 | 17 | 45 | 6.4 | 11.3 | 0.00 | 0.00 | 0.00 | 61 | 1007.9 |
| 20260508220321 | 18 | 125 | 1.6 | 3.2 | 0.00 | 0.00 | 0.00 | 59 | 1007.8 |
| 20260508215818 | 17 | 91 | 3.2 | 3.2 | 0.00 | 0.00 | 0.00 | 60 | 1008.0 |
| 20260508215314 | 17 | 162 | 4.8 | 6.4 | 0.00 | 0.00 | 0.00 | 61 | 1008.0 |
| 20260508214812 | 17 | 48 | 1.6 | 1.6 | 0.00 | 0.00 | 0.00 | 61 | 1008.1 |
| 20260508214308 | 17 | 81 | 0.0 | 1.6 | 0.00 | 0.00 | 0.00 | 61 | 1008.1 |
| 20260508213805 | 17 | 49 | 3.2 | 4.8 | 0.00 | 0.00 | 0.00 | 60 | 1007.9 |
| 20260508213302 | 17 | 20 | 1.6 | 1.6 | 0.00 | 0.00 | 0.00 | 58 | 1008.0 |
| 20260508212758 | 17 | 93 | 1.6 | 1.6 | 0.00 | 0.00 | 0.00 | 59 | 1008.0 |
| 20260508212254 | 17 | 101 | 4.8 | 4.8 | 0.00 | 0.00 | 0.00 | 59 | 1007.9 |
| 20260508211750 | 17 | 47 | 1.6 | 1.6 | 0.00 | 0.00 | 0.00 | 60 | 1007.9 |
| 20260508211246 | 17 | 103 | 3.2 | 4.8 | 0.00 | 0.00 | 0.00 | 57 | 1008.1 |
| 20260508210744 | 17 | 83 | 4.8 | 6.4 | 0.00 | 0.00 | 0.00 | 56 | 1008.1 |
| 20260508210241 | 17 | 101 | 8.0 | 11.3 | 0.00 | 0.00 | 0.00 | 55 | 1008.0 |
| 20260508205738 | 17 | 85 | 8.0 | 12.9 | 0.00 | 0.00 | 0.00 | 55 | 1008.2 |
| 20260508205234 | 17 | 80 | 3.2 | 3.2 | 0.00 | 0.00 | 0.00 | 56 | 1008.0 |
| 20260508204730 | 17 | 90 | 8.0 | 11.3 | 0.00 | 0.00 | 0.00 | 55 | 1008.2 |
| 20260508204227 | 17 | 32 | 3.2 | 4.8 | 0.00 | 0.00 | 0.00 | 54 | 1008.2 |
| 20260508203723 | 17 | 108 | 1.6 | 3.2 | 0.00 | 0.00 | 0.00 | 55 | 1008.2 |
| 20260508203219 | 17 | 143 | 4.8 | 4.8 | 0.00 | 0.00 | 0.00 | 55 | 1008.4 |
| 20260508202715 | 17 | 64 | 4.8 | 11.3 | 0.00 | 0.00 | 0.00 | 55 | 1008.4 |
| 20260508202213 | 17 | 111 | 4.8 | 4.8 | 0.00 | 0.00 | 0.00 | 54 | 1008.5 |
| 20260508201709 | 17 | 97 | 4.8 | 6.4 | 0.00 | 0.00 | 0.00 | 54 | 1008.4 |
| 20260508201206 | 17 | 143 | 1.6 | 3.2 | 0.00 | 0.00 | 0.00 | 54 | 1008.6 |
| 20260508200703 | 17 | 51 | 3.2 | 6.4 | 0.00 | 0.00 | 0.00 | 54 | 1008.6 |
| 20260508200159 | 17 | 122 | 9.7 | 12.9 | 0.00 | 0.00 | 0.00 | 52 | 1008.7 |
| 20260508195656 | 18 | 93 | 1.6 | 1.6 | 0.00 | 0.00 | 0.00 | 53 | 1008.8 |
| 20260508195152 | 18 | 193 | 1.6 | 1.6 | 0.00 | 0.00 | 0.00 | 46 | 1009.0 |
| 20260508194649 | 18 | 63 | 0.0 | 1.6 | 0.00 | 0.00 | 0.00 | 46 | 1008.9 |
| 20260508194146 | 18 | 220 | 1.6 | 1.6 | 0.00 | 0.00 | 0.00 | 45 | 1008.9 |
| 20260508193643 | 18 | 35 | 1.6 | 1.6 | 0.00 | 0.00 | 0.00 | 46 | 1009.1 |
| 20260508193139 | 18 | 344 | 1.6 | 1.6 | 0.00 | 0.00 | 0.00 | 46 | 1009.1 |
| 20260508192636 | 18 | 94 | 1.6 | 1.6 | 0.00 | 0.00 | 0.00 | 48 | 1009.2 |
| 20260508192134 | 18 | 162 | 0.0 | 1.6 | 0.00 | 0.00 | 0.00 | 49 | 1009.1 |
| 20260508191630 | 18 | 242 | 0.0 | 1.6 | 0.00 | 0.00 | 0.00 | 47 | 1009.1 |
| 20260508191127 | 18 | 230 | 1.6 | 3.2 | 0.00 | 0.00 | 0.00 | 47 | 1009.3 |
| 20260508190625 | 18 | 165 | 6.4 | 6.4 | 0.00 | 0.00 | 0.00 | 47 | 1009.4 |
| 20260508190121 | 18 | 2 | 0.0 | 1.6 | 0.00 | 0.00 | 0.00 | 46 | 1009.5 |
| 20260508185618 | 20 | 140 | 6.4 | 11.3 | 0.00 | 0.00 | 0.00 | 43 | 1009.6 |
| 20260508185115 | 20 | 171 | 3.2 | 3.2 | 0.00 | 0.00 | 0.00 | 44 | 1009.5 |
| 20260508184612 | 19 | 245 | 3.2 | 4.8 | 0.00 | 0.00 | 0.00 | 42 | 1009.6 |
| 20260508184109 | 18 | 171 | 1.6 | 3.2 | 0.00 | 0.00 | 0.00 | 42 | 1009.7 |
| 20260508183606 | 18 | 151 | 1.6 | 1.6 | 0.00 | 0.00 | 0.00 | 43 | 1009.8 |
| 20260508183102 | 18 | 52 | 0.0 | 0.0 | 0.00 | 0.00 | 0.00 | 44 | 1009.8 |
| 20260508182558 | 18 | 191 | 6.4 | 9.7 | 0.00 | 0.00 | 0.00 | 44 | 1009.9 |
| 20260508182055 | 18 | 137 | 3.2 | 3.2 | 0.00 | 0.00 | 0.00 | 44 | 1009.9 |
| 20260508181549 | 18 | 77 | 3.2 | 3.2 | 0.00 | 0.00 | 0.00 | 45 | 1010.0 |
| 20260508181047 | 18 | 323 | 0.0 | 0.0 | 0.00 | 0.00 | 0.00 | 47 | 1010.0 |
| 20260508180544 | 18 | 349 | 1.6 | 1.6 | 0.00 | 0.00 | 0.00 | 45 | 1010.0 |
| 20260508180040 | 18 | 141 | 0.0 | 0.0 | 0.00 | 0.00 | 0.00 | 47 | 1010.2 |
| 20260508175537 | 17 | 44 | 4.8 | 6.4 | 0.00 | 0.00 | 0.00 | 50 | 1010.4 |
| 20260508175034 | 18 | 157 | 1.6 | 1.6 | 0.00 | 0.00 | 0.00 | 43 | 1010.3 |
| 20260508174532 | 18 | 167 | 3.2 | 3.2 | 0.00 | 0.00 | 0.00 | 43 | 1010.3 |
| 20260508174028 | 18 | 60 | 1.6 | 1.6 | 0.00 | 0.00 | 0.00 | 48 | 1010.4 |
| 20260508173525 | 17 | 104 | 1.6 | 1.6 | 0.00 | 0.00 | 0.00 | 48 | 1010.5 |
| 20260508173021 | 17 | 82 | 6.4 | 6.4 | 0.00 | 0.00 | 0.00 | 46 | 1010.9 |
| 20260508172519 | 18 | 275 | 1.6 | 3.2 | 0.00 | 0.00 | 0.00 | 42 | 1010.8 |
| 20260508172015 | 18 | 181 | 3.2 | 3.2 | 0.00 | 0.00 | 0.00 | 43 | 1011.0 |
| 20260508171512 | 18 | 168 | 3.2 | 3.2 | 0.00 | 0.00 | 0.00 | 42 | 1011.0 |
| 20260508171008 | 18 | 218 | 4.8 | 9.7 | 0.00 | 0.00 | 0.00 | 44 | 1011.2 |
| 20260508170506 | 18 | 129 | 3.2 | 4.8 | 0.00 | 0.00 | 0.00 | 41 | 1011.2 |
| 20260508170002 | 18 | 84 | 3.2 | 3.2 | 0.00 | 0.00 | 0.00 | 41 | 1011.4 |
| 20260508165500 | 17 | 142 | 1.6 | 1.6 | 0.00 | 0.00 | 0.00 | 39 | 1011.5 |
| 20260508164956 | 17 | 190 | 4.8 | 6.4 | 0.00 | 0.00 | 0.00 | 39 | 1011.6 |
| 20260508164453 | 17 | 205 | 3.2 | 4.8 | 0.00 | 0.00 | 0.00 | 39 | 1011.4 |
| 20260508163950 | 17 | 163 | 3.2 | 4.8 | 0.00 | 0.00 | 0.00 | 39 | 1011.6 |
| 20260508163448 | 16 | 203 | 3.2 | 3.2 | 0.00 | 0.00 | 0.00 | 41 | 1011.7 |
| 20260508162943 | 16 | 182 | 4.8 | 4.8 | 0.00 | 0.00 | 0.00 | 37 | 1012.0 |
| 20260508162441 | 17 | 99 | 3.2 | 4.8 | 0.00 | 0.00 | 0.00 | 40 | 1011.8 |